createdAt,value
2023-04-12T00:03:29.245Z,8.44
2023-04-12T00:08:35.321Z,8.30
2023-04-12T00:13:36.958Z,8.14
2023-04-12T00:18:38.371Z,8.06
2023-04-12T00:23:39.767Z,8.08
2023-04-12T00:28:42.112Z,7.99
2023-04-12T00:33:43.526Z,7.94
2023-04-12T00:38:47.849Z,7.94
2023-04-12T00:43:49.858Z,7.86
2023-04-12T00:48:51.514Z,7.81
2023-04-12T00:53:58.125Z,7.79
2023-04-12T00:59:00.109Z,7.78
2023-04-12T01:04:04.519Z,7.74
2023-04-12T01:09:35.891Z,7.78
2023-04-12T01:14:52.518Z,7.70
2023-04-12T01:20:17.067Z,7.74
2023-04-12T01:25:41.986Z,7.64
2023-04-12T01:30:46.038Z,7.58
2023-04-12T01:35:49.651Z,7.58
2023-04-12T01:40:52.147Z,7.54
2023-04-12T01:45:54.021Z,7.51
2023-04-12T01:51:18.761Z,7.52
2023-04-12T01:56:23.492Z,7.54
2023-04-12T02:01:25.815Z,7.47
2023-04-12T02:06:27.890Z,7.50
2023-04-12T02:11:29.848Z,7.47
2023-04-12T02:16:32.521Z,7.51
2023-04-12T02:21:42.082Z,7.50
2023-04-12T02:26:43.527Z,7.47
2023-04-12T02:31:44.989Z,7.48
2023-04-12T02:36:47.525Z,7.44
2023-04-12T02:41:49.024Z,7.47
2023-04-12T02:46:50.461Z,7.43
2023-04-12T02:51:51.863Z,7.43
2023-04-12T02:56:53.290Z,7.42
2023-04-12T03:01:54.937Z,7.43
2023-04-12T03:06:56.829Z,7.42
2023-04-12T03:11:58.641Z,7.36
2023-04-12T03:17:00.059Z,7.36
2023-04-12T03:22:01.808Z,7.36
2023-04-12T03:27:04.386Z,7.29
2023-04-12T03:32:05.817Z,7.28
2023-04-12T03:37:07.349Z,7.34
2023-04-12T03:42:13.575Z,7.29
2023-04-12T03:47:23.284Z,7.22
2023-04-12T03:52:24.752Z,7.23
2023-04-12T03:57:26.191Z,7.23
2023-04-12T04:02:28.014Z,7.14
2023-04-12T04:07:29.817Z,7.08
2023-04-12T04:12:31.244Z,7.11
2023-04-12T04:17:32.702Z,7.04
2023-04-12T04:22:34.643Z,7.02
2023-04-12T04:27:38.463Z,7.05
2023-04-12T04:32:40.179Z,7.07
2023-04-12T04:37:41.615Z,7.04
2023-04-12T04:42:43.314Z,7.05
2023-04-12T04:47:44.787Z,7.00
2023-04-12T04:52:48.314Z,7.01
2023-04-12T04:57:49.763Z,7.00
2023-04-12T05:02:51.865Z,7.02
2023-04-12T05:07:53.393Z,6.98
2023-04-12T05:12:54.895Z,7.05
2023-04-12T05:17:56.381Z,7.02
2023-04-12T05:22:57.793Z,6.99
2023-04-12T05:27:59.222Z,7.02
2023-04-12T05:33:01.269Z,7.00
2023-04-12T05:38:03.007Z,7.02
2023-04-12T05:43:04.450Z,7.05
2023-04-12T05:48:06.124Z,7.06
2023-04-12T05:53:08.142Z,7.14
2023-04-12T05:58:10.460Z,7.16
2023-04-12T06:03:12.241Z,7.15
2023-04-12T06:08:14.861Z,7.18
2023-04-12T06:13:16.435Z,7.23
2023-04-12T06:18:17.817Z,7.31
2023-04-12T06:23:19.533Z,7.35
2023-04-12T06:28:20.957Z,7.32
2023-04-12T06:33:23.062Z,7.37
2023-04-12T06:38:24.549Z,7.38
2023-04-12T06:43:26.110Z,7.41
2023-04-12T06:48:27.491Z,7.38
2023-04-12T06:53:29.994Z,7.44
2023-04-12T06:58:31.863Z,7.46
2023-04-12T07:03:34.260Z,7.61
2023-04-12T07:08:36.313Z,7.58
2023-04-12T07:13:37.744Z,7.60
2023-04-12T07:18:40.089Z,7.61
2023-04-12T07:23:41.525Z,7.69
2023-04-12T07:28:42.922Z,7.73
2023-04-12T07:33:44.731Z,7.91
2023-04-12T07:38:46.621Z,8.04
2023-04-12T07:43:48.316Z,8.10
2023-04-12T07:48:51.254Z,8.14
2023-04-12T07:53:52.864Z,8.32
2023-04-12T07:58:54.364Z,8.32
2023-04-12T08:03:56.211Z,8.18
2023-04-12T08:08:58.014Z,8.28
2023-04-12T08:14:00.268Z,8.38
2023-04-12T08:19:01.777Z,8.64
2023-04-12T08:24:03.213Z,8.66
2023-04-12T08:29:04.621Z,8.68
2023-04-12T08:34:06.404Z,8.65
2023-04-12T08:39:07.871Z,8.74
2023-04-12T08:44:11.291Z,8.75
2023-04-12T08:49:13.018Z,8.64
2023-04-12T08:54:14.465Z,8.96
2023-04-12T08:59:16.160Z,9.24
2023-04-12T09:04:17.832Z,9.54
2023-04-12T09:09:19.344Z,9.32
2023-04-12T09:14:25.799Z,9.67
2023-04-12T09:19:35.614Z,9.96
2023-04-12T09:24:53.188Z,9.95
2023-04-12T09:30:08.952Z,9.96
2023-04-12T09:35:10.868Z,10.03
2023-04-12T09:40:17.063Z,10.34
2023-04-12T09:45:22.816Z,10.14
2023-04-12T09:50:29.368Z,10.26
2023-04-12T09:55:32.431Z,10.46
2023-04-12T10:00:35.277Z,10.57
2023-04-12T10:05:38.377Z,10.82
2023-04-12T10:10:40.192Z,10.57
2023-04-12T10:15:42.223Z,10.88
2023-04-12T10:20:45.808Z,10.55
2023-04-12T10:25:49.060Z,10.62
2023-04-12T10:30:52.239Z,10.34
2023-04-12T10:36:03.762Z,9.96
2023-04-12T10:41:18.503Z,10.03
2023-04-12T10:46:38.541Z,10.04
2023-04-12T10:52:03.741Z,10.77
2023-04-12T10:57:08.166Z,10.36
2023-04-12T11:02:11.769Z,10.66
2023-04-12T11:07:13.574Z,10.75
2023-04-12T11:12:16.637Z,10.88
2023-04-12T11:17:18.084Z,11.13
2023-04-12T11:22:25.814Z,10.93
2023-04-12T11:27:29.060Z,10.68
2023-04-12T11:32:31.184Z,11.01
2023-04-12T11:37:32.932Z,11.11
2023-04-12T11:42:34.522Z,10.96
2023-04-12T11:47:36.631Z,10.96
2023-04-12T11:52:41.070Z,10.02
2023-04-12T11:57:42.704Z,10.12
2023-04-12T12:02:56.005Z,10.21
2023-04-12T12:08:07.690Z,10.80
2023-04-12T12:13:11.411Z,11.15
2023-04-12T12:18:12.949Z,11.72
2023-04-12T12:23:36.315Z,11.40
2023-04-12T12:28:40.521Z,11.24
2023-04-12T12:33:47.076Z,11.33
2023-04-12T12:38:53.085Z,11.39
2023-04-12T12:43:54.524Z,11.61
2023-04-12T12:48:56.082Z,11.58
2023-04-12T12:53:57.654Z,11.42
2023-04-12T12:58:59.431Z,11.29
2023-04-12T13:04:01.525Z,11.25
2023-04-12T13:09:03.134Z,10.98
2023-04-12T13:14:04.876Z,10.79
2023-04-12T13:19:06.411Z,11.14
2023-04-12T13:24:07.962Z,10.98
2023-04-12T13:29:09.663Z,10.82
2023-04-12T13:34:11.116Z,10.96
2023-04-12T13:39:12.595Z,10.90
2023-04-12T13:44:14.027Z,10.66
2023-04-12T13:49:15.621Z,10.53
2023-04-12T13:54:17.547Z,10.18
2023-04-12T13:59:19.019Z,10.01
2023-04-12T14:04:20.644Z,10.04
2023-04-12T14:09:30.656Z,9.94
2023-04-12T14:14:32.081Z,9.72
2023-04-12T14:19:33.511Z,9.68
2023-04-12T14:24:34.968Z,9.61
2023-04-12T14:29:37.122Z,9.40
2023-04-12T14:34:38.570Z,9.62
2023-04-12T14:39:40.205Z,9.36
2023-04-12T14:44:41.697Z,9.81
2023-04-12T14:49:43.295Z,9.70
2023-04-12T14:54:44.696Z,9.57
2023-04-12T14:59:46.209Z,9.55
2023-04-12T15:04:49.591Z,9.38
2023-04-12T15:09:51.146Z,8.82
2023-04-12T15:14:53.979Z,8.62
2023-04-12T15:19:55.462Z,8.27
2023-04-12T15:24:56.918Z,8.04
2023-04-12T15:29:59.352Z,7.62
2023-04-12T15:35:04.284Z,7.54
2023-04-12T15:40:15.946Z,7.55
2023-04-12T15:45:18.119Z,7.66
2023-04-12T15:50:19.580Z,7.56
2023-04-12T15:55:21.961Z,7.49
2023-04-12T16:00:25.758Z,7.73
2023-04-12T16:05:27.465Z,7.61
2023-04-12T16:10:29.361Z,7.62
2023-04-12T16:15:31.178Z,7.94
2023-04-12T16:20:32.934Z,8.02
2023-04-12T16:25:36.041Z,7.82
2023-04-12T16:30:37.804Z,7.90
2023-04-12T16:35:39.294Z,8.10
2023-04-12T16:40:40.724Z,8.07
2023-04-12T16:45:45.603Z,8.15
2023-04-12T16:50:48.410Z,8.18
2023-04-12T16:55:49.869Z,8.40
2023-04-12T17:00:51.317Z,8.20
2023-04-12T17:05:53.166Z,8.07
2023-04-12T17:10:54.810Z,8.09
2023-04-12T17:15:56.652Z,7.90
2023-04-12T17:20:59.003Z,7.81
2023-04-12T17:26:01.342Z,7.78
2023-04-12T17:31:02.742Z,7.82
2023-04-12T17:36:04.425Z,7.77
2023-04-12T17:41:07.090Z,7.72
2023-04-12T17:46:08.535Z,7.70
2023-04-12T17:51:09.979Z,7.59
2023-04-12T17:56:11.486Z,7.53
2023-04-12T18:01:12.990Z,7.47
2023-04-12T18:06:15.018Z,7.43
2023-04-12T18:11:16.594Z,7.46
2023-04-12T18:16:18.096Z,7.28
2023-04-12T18:21:21.299Z,7.21
2023-04-12T18:26:23.124Z,7.16
2023-04-12T18:31:24.696Z,7.21
2023-04-12T18:36:27.220Z,6.99
2023-04-12T18:41:28.697Z,6.94
2023-04-12T18:46:30.385Z,6.83
2023-04-12T18:51:32.892Z,6.77
2023-04-12T18:56:34.494Z,6.62
2023-04-12T19:01:36.390Z,6.59
2023-04-12T19:06:38.364Z,6.50
2023-04-12T19:11:39.906Z,6.44
2023-04-12T19:16:41.848Z,6.42
2023-04-12T19:21:46.730Z,6.38
2023-04-12T19:26:50.067Z,6.43
2023-04-12T19:31:53.653Z,6.34
2023-04-12T19:36:55.694Z,6.23
2023-04-12T19:41:57.968Z,6.18
2023-04-12T19:47:01.271Z,6.10
2023-04-12T19:52:07.551Z,6.07
2023-04-12T19:57:09.046Z,6.01
2023-04-12T20:02:10.883Z,5.96
2023-04-12T20:07:12.917Z,5.91
2023-04-12T20:12:16.591Z,5.84
2023-04-12T20:17:29.482Z,5.87
2023-04-12T20:22:35.441Z,5.80
2023-04-12T20:27:40.856Z,5.72
2023-04-12T20:32:42.409Z,5.72
2023-04-12T20:37:51.028Z,5.78
2023-04-12T20:42:55.153Z,6.04
2023-04-12T20:47:57.067Z,6.35
2023-04-12T20:52:58.630Z,6.29
2023-04-12T20:58:05.362Z,6.31
2023-04-12T21:03:08.939Z,6.26
2023-04-12T21:08:11.880Z,6.22
2023-04-12T21:13:14.310Z,6.17
2023-04-12T21:18:17.031Z,6.25
2023-04-12T21:23:18.514Z,6.26
2023-04-12T21:28:20.857Z,6.31
2023-04-12T21:33:26.466Z,6.19
2023-04-12T21:38:37.213Z,6.24
2023-04-12T21:43:39.159Z,6.25
2023-04-12T21:48:40.768Z,6.42
2023-04-12T21:53:42.279Z,6.39
2023-04-12T21:58:43.776Z,6.49
2023-04-12T22:03:45.458Z,6.49
2023-04-12T22:08:48.072Z,6.53
2023-04-12T22:13:51.009Z,6.59
2023-04-12T22:18:52.845Z,6.55
2023-04-12T22:23:55.194Z,6.62
2023-04-12T22:28:56.726Z,6.45
2023-04-12T22:33:58.371Z,6.42
2023-04-12T22:39:00.034Z,6.35
2023-04-12T22:44:03.029Z,6.22
2023-04-12T22:49:10.673Z,6.06
2023-04-12T22:54:12.339Z,6.02
2023-04-12T22:59:18.870Z,5.94
2023-04-12T23:04:20.503Z,5.96
2023-04-12T23:09:21.997Z,5.95
2023-04-12T23:14:26.340Z,5.92
2023-04-12T23:19:28.941Z,5.96
2023-04-12T23:24:31.015Z,5.96
2023-04-12T23:29:33.605Z,5.87
2023-04-12T23:34:40.400Z,5.87
2023-04-12T23:39:44.762Z,5.89
2023-04-12T23:44:46.801Z,5.89
2023-04-12T23:49:48.340Z,5.89
2023-04-12T23:54:49.846Z,5.81
2023-04-12T23:59:51.890Z,5.83
